sensor_id;sensor_type;location;lat;lon;timestamp;P1;durP1;ratioP1;P2;durP2;ratioP2
51901;SDS011;37929;53.218;6.548;2022-09-09T00:03:44;15.25;;;9.82;;
51901;SDS011;37929;53.218;6.548;2022-09-09T00:06:30;11.00;;;7.90;;
51901;SDS011;37929;53.218;6.548;2022-09-09T00:09:11;12.15;;;9.93;;
51901;SDS011;37929;53.218;6.548;2022-09-09T00:11:50;13.88;;;9.55;;
51901;SDS011;37929;53.218;6.548;2022-09-09T00:14:21;15.27;;;11.00;;
51901;SDS011;37929;53.218;6.548;2022-09-09T00:17:00;17.08;;;10.52;;
51901;SDS011;37929;53.218;6.548;2022-09-09T00:19:33;13.30;;;11.38;;
51901;SDS011;37929;53.218;6.548;2022-09-09T00:24:44;12.98;;;10.05;;
51901;SDS011;37929;53.218;6.548;2022-09-09T00:27:16;16.40;;;11.02;;
51901;SDS011;37929;53.218;6.548;2022-09-09T00:33:01;11.98;;;9.25;;
51901;SDS011;37929;53.218;6.548;2022-09-09T00:35:40;15.93;;;10.95;;
51901;SDS011;37929;53.218;6.548;2022-09-09T00:38:13;16.08;;;11.48;;
51901;SDS011;37929;53.218;6.548;2022-09-09T00:40:51;16.08;;;10.98;;
51901;SDS011;37929;53.218;6.548;2022-09-09T00:48:32;16.15;;;11.63;;
51901;SDS011;37929;53.218;6.548;2022-09-09T00:51:15;17.48;;;12.18;;
51901;SDS011;37929;53.218;6.548;2022-09-09T00:56:36;14.93;;;11.20;;
51901;SDS011;37929;53.218;6.548;2022-09-09T01:01:43;16.58;;;11.52;;
51901;SDS011;37929;53.218;6.548;2022-09-09T01:04:10;12.27;;;10.80;;
51901;SDS011;37929;53.218;6.548;2022-09-09T01:06:41;15.07;;;10.45;;
51901;SDS011;37929;53.218;6.548;2022-09-09T01:12:11;15.30;;;10.23;;
51901;SDS011;37929;53.218;6.548;2022-09-09T01:14:48;12.75;;;10.60;;
51901;SDS011;37929;53.218;6.548;2022-09-09T01:17:19;13.77;;;9.93;;
51901;SDS011;37929;53.218;6.548;2022-09-09T01:20:05;14.85;;;10.30;;
51901;SDS011;37929;53.218;6.548;2022-09-09T01:28:13;15.57;;;10.80;;
51901;SDS011;37929;53.218;6.548;2022-09-09T01:30:44;16.70;;;11.10;;
51901;SDS011;37929;53.218;6.548;2022-09-09T01:33:14;14.93;;;11.50;;
51901;SDS011;37929;53.218;6.548;2022-09-09T01:38:42;14.82;;;10.38;;
51901;SDS011;37929;53.218;6.548;2022-09-09T01:41:07;12.43;;;9.70;;
51901;SDS011;37929;53.218;6.548;2022-09-09T01:43:33;15.63;;;9.65;;
51901;SDS011;37929;53.218;6.548;2022-09-09T01:46:00;16.17;;;10.30;;
51901;SDS011;37929;53.218;6.548;2022-09-09T01:48:27;16.20;;;10.18;;
51901;SDS011;37929;53.218;6.548;2022-09-09T01:50:54;15.82;;;10.05;;
51901;SDS011;37929;53.218;6.548;2022-09-09T01:53:20;12.40;;;9.93;;
51901;SDS011;37929;53.218;6.548;2022-09-09T02:04:07;17.40;;;11.15;;
51901;SDS011;37929;53.218;6.548;2022-09-09T02:06:47;17.52;;;11.95;;
51901;SDS011;37929;53.218;6.548;2022-09-09T02:09:16;16.90;;;11.35;;
51901;SDS011;37929;53.218;6.548;2022-09-09T02:11:44;16.88;;;12.40;;
51901;SDS011;37929;53.218;6.548;2022-09-09T02:14:13;17.80;;;11.90;;
51901;SDS011;37929;53.218;6.548;2022-09-09T02:19:16;16.80;;;11.35;;
51901;SDS011;37929;53.218;6.548;2022-09-09T02:21:55;17.05;;;12.35;;
51901;SDS011;37929;53.218;6.548;2022-09-09T02:24:22;16.05;;;12.57;;
51901;SDS011;37929;53.218;6.548;2022-09-09T02:26:49;19.58;;;12.43;;
51901;SDS011;37929;53.218;6.548;2022-09-09T02:29:22;16.75;;;13.10;;
51901;SDS011;37929;53.218;6.548;2022-09-09T02:31:52;18.77;;;12.82;;
51901;SDS011;37929;53.218;6.548;2022-09-09T02:34:21;20.27;;;14.13;;
51901;SDS011;37929;53.218;6.548;2022-09-09T02:36:49;18.70;;;13.73;;
51901;SDS011;37929;53.218;6.548;2022-09-09T02:39:17;17.08;;;13.07;;
51901;SDS011;37929;53.218;6.548;2022-09-09T02:41:43;19.98;;;13.98;;
51901;SDS011;37929;53.218;6.548;2022-09-09T02:44:14;21.70;;;14.23;;
51901;SDS011;37929;53.218;6.548;2022-09-09T02:49:34;18.98;;;13.60;;
51901;SDS011;37929;53.218;6.548;2022-09-09T02:55:32;17.90;;;13.05;;
51901;SDS011;37929;53.218;6.548;2022-09-09T02:58:14;16.85;;;12.98;;
51901;SDS011;37929;53.218;6.548;2022-09-09T03:00:43;19.25;;;12.27;;
51901;SDS011;37929;53.218;6.548;2022-09-09T03:03:13;18.10;;;12.02;;
51901;SDS011;37929;53.218;6.548;2022-09-09T03:05:41;16.77;;;12.50;;
51901;SDS011;37929;53.218;6.548;2022-09-09T03:08:07;14.57;;;12.60;;
51901;SDS011;37929;53.218;6.548;2022-09-09T03:10:33;21.85;;;12.50;;
51901;SDS011;37929;53.218;6.548;2022-09-09T03:13:00;18.92;;;12.73;;
51901;SDS011;37929;53.218;6.548;2022-09-09T03:15:26;16.13;;;12.52;;
51901;SDS011;37929;53.218;6.548;2022-09-09T03:17:56;16.75;;;12.55;;
51901;SDS011;37929;53.218;6.548;2022-09-09T03:20:23;19.98;;;11.65;;
51901;SDS011;37929;53.218;6.548;2022-09-09T03:22:53;16.95;;;12.43;;
51901;SDS011;37929;53.218;6.548;2022-09-09T03:25:20;19.63;;;12.77;;
51901;SDS011;37929;53.218;6.548;2022-09-09T03:27:46;15.20;;;12.38;;
51901;SDS011;37929;53.218;6.548;2022-09-09T03:30:12;15.20;;;12.13;;
51901;SDS011;37929;53.218;6.548;2022-09-09T03:32:38;17.58;;;12.02;;
51901;SDS011;37929;53.218;6.548;2022-09-09T03:35:05;17.73;;;12.00;;
51901;SDS011;37929;53.218;6.548;2022-09-09T03:37:31;18.83;;;11.82;;
51901;SDS011;37929;53.218;6.548;2022-09-09T03:39:57;19.10;;;11.68;;
51901;SDS011;37929;53.218;6.548;2022-09-09T03:42:22;16.98;;;12.00;;
51901;SDS011;37929;53.218;6.548;2022-09-09T03:44:48;16.10;;;10.40;;
51901;SDS011;37929;53.218;6.548;2022-09-09T03:47:17;16.23;;;10.05;;
51901;SDS011;37929;53.218;6.548;2022-09-09T03:49:44;16.10;;;10.60;;
51901;SDS011;37929;53.218;6.548;2022-09-09T03:52:10;16.05;;;9.93;;
51901;SDS011;37929;53.218;6.548;2022-09-09T03:54:36;13.15;;;8.40;;
51901;SDS011;37929;53.218;6.548;2022-09-09T03:57:02;14.82;;;8.20;;
51901;SDS011;37929;53.218;6.548;2022-09-09T03:59:29;12.32;;;7.80;;
51901;SDS011;37929;53.218;6.548;2022-09-09T04:01:55;9.38;;;7.15;;
51901;SDS011;37929;53.218;6.548;2022-09-09T04:04:22;11.05;;;6.50;;
51901;SDS011;37929;53.218;6.548;2022-09-09T04:06:48;9.68;;;6.55;;
51901;SDS011;37929;53.218;6.548;2022-09-09T04:09:14;8.65;;;5.85;;
51901;SDS011;37929;53.218;6.548;2022-09-09T04:11:40;9.75;;;6.00;;
51901;SDS011;37929;53.218;6.548;2022-09-09T04:14:05;11.15;;;6.20;;
51901;SDS011;37929;53.218;6.548;2022-09-09T04:16:34;9.02;;;5.85;;
51901;SDS011;37929;53.218;6.548;2022-09-09T04:19:02;8.88;;;5.43;;
51901;SDS011;37929;53.218;6.548;2022-09-09T04:21:29;8.80;;;5.28;;
51901;SDS011;37929;53.218;6.548;2022-09-09T04:23:56;9.68;;;5.45;;
51901;SDS011;37929;53.218;6.548;2022-09-09T04:26:21;10.23;;;5.30;;
51901;SDS011;37929;53.218;6.548;2022-09-09T04:28:47;10.30;;;5.28;;
51901;SDS011;37929;53.218;6.548;2022-09-09T04:31:15;8.88;;;4.95;;
51901;SDS011;37929;53.218;6.548;2022-09-09T04:33:43;6.97;;;4.82;;
51901;SDS011;37929;53.218;6.548;2022-09-09T04:36:09;8.73;;;4.90;;
51901;SDS011;37929;53.218;6.548;2022-09-09T04:38:35;8.00;;;5.18;;
51901;SDS011;37929;53.218;6.548;2022-09-09T04:41:01;11.80;;;5.70;;
51901;SDS011;37929;53.218;6.548;2022-09-09T04:43:27;10.73;;;5.00;;
51901;SDS011;37929;53.218;6.548;2022-09-09T04:45:53;10.68;;;5.75;;
51901;SDS011;37929;53.218;6.548;2022-09-09T04:48:19;10.05;;;5.88;;
51901;SDS011;37929;53.218;6.548;2022-09-09T04:50:56;11.00;;;5.93;;
51901;SDS011;37929;53.218;6.548;2022-09-09T04:53:22;10.77;;;6.05;;
51901;SDS011;37929;53.218;6.548;2022-09-09T04:55:48;9.88;;;6.20;;
51901;SDS011;37929;53.218;6.548;2022-09-09T04:58:14;10.70;;;6.53;;
51901;SDS011;37929;53.218;6.548;2022-09-09T05:00:40;10.65;;;6.38;;
51901;SDS011;37929;53.218;6.548;2022-09-09T05:03:06;8.13;;;5.90;;
51901;SDS011;37929;53.218;6.548;2022-09-09T05:05:33;10.73;;;6.50;;
51901;SDS011;37929;53.218;6.548;2022-09-09T05:08:00;12.45;;;7.65;;
51901;SDS011;37929;53.218;6.548;2022-09-09T05:10:27;13.25;;;7.25;;
51901;SDS011;37929;53.218;6.548;2022-09-09T05:12:53;10.00;;;7.30;;
51901;SDS011;37929;53.218;6.548;2022-09-09T05:15:19;10.55;;;7.20;;
51901;SDS011;37929;53.218;6.548;2022-09-09T05:17:46;11.45;;;7.72;;
51901;SDS011;37929;53.218;6.548;2022-09-09T05:20:12;13.50;;;7.85;;
51901;SDS011;37929;53.218;6.548;2022-09-09T05:22:37;12.40;;;8.48;;
51901;SDS011;37929;53.218;6.548;2022-09-09T05:25:03;14.55;;;7.55;;
51901;SDS011;37929;53.218;6.548;2022-09-09T05:27:29;12.70;;;8.32;;
51901;SDS011;37929;53.218;6.548;2022-09-09T05:29:56;11.07;;;8.27;;
51901;SDS011;37929;53.218;6.548;2022-09-09T05:32:23;12.02;;;8.38;;
51901;SDS011;37929;53.218;6.548;2022-09-09T05:34:49;12.85;;;8.90;;
51901;SDS011;37929;53.218;6.548;2022-09-09T05:37:15;14.05;;;9.15;;
51901;SDS011;37929;53.218;6.548;2022-09-09T05:39:41;14.10;;;9.23;;
51901;SDS011;37929;53.218;6.548;2022-09-09T05:42:07;14.95;;;10.23;;
51901;SDS011;37929;53.218;6.548;2022-09-09T05:44:33;14.57;;;9.80;;
51901;SDS011;37929;53.218;6.548;2022-09-09T05:47:01;15.07;;;9.48;;
51901;SDS011;37929;53.218;6.548;2022-09-09T05:49:27;12.57;;;8.98;;
51901;SDS011;37929;53.218;6.548;2022-09-09T05:51:53;15.15;;;10.07;;
51901;SDS011;37929;53.218;6.548;2022-09-09T05:54:19;15.65;;;10.48;;
51901;SDS011;37929;53.218;6.548;2022-09-09T05:56:45;15.25;;;10.20;;
51901;SDS011;37929;53.218;6.548;2022-09-09T05:59:11;18.80;;;10.98;;
51901;SDS011;37929;53.218;6.548;2022-09-09T06:01:37;15.85;;;10.52;;
51901;SDS011;37929;53.218;6.548;2022-09-09T06:04:07;16.48;;;10.80;;
51901;SDS011;37929;53.218;6.548;2022-09-09T06:06:34;13.75;;;10.73;;
51901;SDS011;37929;53.218;6.548;2022-09-09T06:09:02;17.20;;;10.80;;
51901;SDS011;37929;53.218;6.548;2022-09-09T06:11:31;17.05;;;10.88;;
51901;SDS011;37929;53.218;6.548;2022-09-09T06:13:59;16.83;;;11.05;;
51901;SDS011;37929;53.218;6.548;2022-09-09T06:16:26;13.90;;;10.55;;
51901;SDS011;37929;53.218;6.548;2022-09-09T06:18:56;14.13;;;10.40;;
51901;SDS011;37929;53.218;6.548;2022-09-09T06:21:27;14.75;;;10.70;;
51901;SDS011;37929;53.218;6.548;2022-09-09T06:23:55;14.13;;;10.38;;
51901;SDS011;37929;53.218;6.548;2022-09-09T06:26:22;15.70;;;10.48;;
51901;SDS011;37929;53.218;6.548;2022-09-09T06:28:50;13.68;;;9.90;;
51901;SDS011;37929;53.218;6.548;2022-09-09T06:31:20;18.17;;;10.18;;
51901;SDS011;37929;53.218;6.548;2022-09-09T06:33:47;14.23;;;9.93;;
51901;SDS011;37929;53.218;6.548;2022-09-09T06:38:45;11.75;;;9.10;;
51901;SDS011;37929;53.218;6.548;2022-09-09T06:41:12;16.73;;;10.10;;
51901;SDS011;37929;53.218;6.548;2022-09-09T06:43:39;13.80;;;9.95;;
51901;SDS011;37929;53.218;6.548;2022-09-09T06:46:06;15.23;;;10.60;;
51901;SDS011;37929;53.218;6.548;2022-09-09T06:48:43;12.23;;;9.35;;
51901;SDS011;37929;53.218;6.548;2022-09-09T06:53:41;12.73;;;9.23;;
51901;SDS011;37929;53.218;6.548;2022-09-09T06:58:36;13.32;;;9.30;;
51901;SDS011;37929;53.218;6.548;2022-09-09T07:01:05;12.15;;;8.65;;
51901;SDS011;37929;53.218;6.548;2022-09-09T07:03:31;11.68;;;8.52;;
51901;SDS011;37929;53.218;6.548;2022-09-09T07:05:58;11.73;;;8.82;;
51901;SDS011;37929;53.218;6.548;2022-09-09T07:08:24;15.50;;;9.52;;
51901;SDS011;37929;53.218;6.548;2022-09-09T07:10:51;13.07;;;8.98;;
51901;SDS011;37929;53.218;6.548;2022-09-09T07:13:25;13.13;;;8.82;;
51901;SDS011;37929;53.218;6.548;2022-09-09T07:15:52;12.82;;;9.38;;
51901;SDS011;37929;53.218;6.548;2022-09-09T07:18:18;12.35;;;8.82;;
51901;SDS011;37929;53.218;6.548;2022-09-09T07:20:54;11.30;;;8.55;;
51901;SDS011;37929;53.218;6.548;2022-09-09T07:23:24;10.40;;;8.07;;
51901;SDS011;37929;53.218;6.548;2022-09-09T07:25:51;11.90;;;8.63;;
51901;SDS011;37929;53.218;6.548;2022-09-09T07:28:18;13.35;;;8.70;;
51901;SDS011;37929;53.218;6.548;2022-09-09T07:30:58;11.45;;;8.45;;
51901;SDS011;37929;53.218;6.548;2022-09-09T07:33:27;11.40;;;7.90;;
51901;SDS011;37929;53.218;6.548;2022-09-09T07:36:01;13.60;;;8.20;;
51901;SDS011;37929;53.218;6.548;2022-09-09T07:38:45;10.75;;;8.40;;
51901;SDS011;37929;53.218;6.548;2022-09-09T07:41:19;14.90;;;8.30;;
51901;SDS011;37929;53.218;6.548;2022-09-09T07:43:48;11.00;;;7.95;;
51901;SDS011;37929;53.218;6.548;2022-09-09T07:46:15;12.65;;;8.48;;
51901;SDS011;37929;53.218;6.548;2022-09-09T07:48:46;11.32;;;7.95;;
51901;SDS011;37929;53.218;6.548;2022-09-09T07:51:17;14.55;;;8.07;;
51901;SDS011;37929;53.218;6.548;2022-09-09T07:53:48;11.90;;;9.38;;
51901;SDS011;37929;53.218;6.548;2022-09-09T07:56:18;12.00;;;8.43;;
51901;SDS011;37929;53.218;6.548;2022-09-09T07:58:46;12.38;;;8.20;;
51901;SDS011;37929;53.218;6.548;2022-09-09T08:01:15;10.30;;;6.82;;
51901;SDS011;37929;53.218;6.548;2022-09-09T08:03:43;12.68;;;7.93;;
51901;SDS011;37929;53.218;6.548;2022-09-09T08:06:16;9.57;;;7.32;;
51901;SDS011;37929;53.218;6.548;2022-09-09T08:08:42;10.57;;;6.95;;
51901;SDS011;37929;53.218;6.548;2022-09-09T08:11:12;10.43;;;7.47;;
51901;SDS011;37929;53.218;6.548;2022-09-09T08:13:40;11.95;;;7.20;;
51901;SDS011;37929;53.218;6.548;2022-09-09T08:16:22;11.18;;;7.30;;
51901;SDS011;37929;53.218;6.548;2022-09-09T08:18:51;10.77;;;7.28;;
51901;SDS011;37929;53.218;6.548;2022-09-09T08:21:18;9.23;;;6.90;;
51901;SDS011;37929;53.218;6.548;2022-09-09T08:23:47;10.50;;;6.93;;
51901;SDS011;37929;53.218;6.548;2022-09-09T08:26:17;9.75;;;7.32;;
51901;SDS011;37929;53.218;6.548;2022-09-09T08:28:47;10.43;;;7.07;;
51901;SDS011;37929;53.218;6.548;2022-09-09T08:31:16;8.27;;;5.97;;
51901;SDS011;37929;53.218;6.548;2022-09-09T08:33:44;12.15;;;6.53;;
51901;SDS011;37929;53.218;6.548;2022-09-09T08:36:17;9.02;;;6.15;;
51901;SDS011;37929;53.218;6.548;2022-09-09T08:38:51;8.20;;;6.20;;
51901;SDS011;37929;53.218;6.548;2022-09-09T08:41:28;9.85;;;6.63;;
51901;SDS011;37929;53.218;6.548;2022-09-09T08:44:32;9.73;;;6.32;;
51901;SDS011;37929;53.218;6.548;2022-09-09T08:52:37;10.70;;;6.05;;
51901;SDS011;37929;53.218;6.548;2022-09-09T08:55:28;8.48;;;5.65;;
51901;SDS011;37929;53.218;6.548;2022-09-09T08:58:12;10.30;;;6.53;;
51901;SDS011;37929;53.218;6.548;2022-09-09T09:11:55;9.98;;;5.78;;
51901;SDS011;37929;53.218;6.548;2022-09-09T09:14:28;10.68;;;5.80;;
51901;SDS011;37929;53.218;6.548;2022-09-09T09:17:03;10.60;;;5.50;;
51901;SDS011;37929;53.218;6.548;2022-09-09T09:19:34;10.57;;;5.32;;
51901;SDS011;37929;53.218;6.548;2022-09-09T09:27:40;11.98;;;6.25;;
51901;SDS011;37929;53.218;6.548;2022-09-09T09:33:52;11.23;;;5.80;;
51901;SDS011;37929;53.218;6.548;2022-09-09T09:36:24;12.63;;;5.78;;
51901;SDS011;37929;53.218;6.548;2022-09-09T09:39:01;12.20;;;6.38;;
51901;SDS011;37929;53.218;6.548;2022-09-09T09:41:40;9.20;;;6.15;;
51901;SDS011;37929;53.218;6.548;2022-09-09T09:44:27;10.65;;;5.55;;
51901;SDS011;37929;53.218;6.548;2022-09-09T09:49:35;12.98;;;6.72;;
51901;SDS011;37929;53.218;6.548;2022-09-09T09:52:05;12.27;;;7.63;;
51901;SDS011;37929;53.218;6.548;2022-09-09T09:54:33;9.05;;;5.47;;
51901;SDS011;37929;53.218;6.548;2022-09-09T09:57:14;11.40;;;5.38;;
51901;SDS011;37929;53.218;6.548;2022-09-09T09:59:41;11.68;;;5.15;;
51901;SDS011;37929;53.218;6.548;2022-09-09T10:02:14;8.40;;;5.68;;
51901;SDS011;37929;53.218;6.548;2022-09-09T10:04:45;10.05;;;5.13;;
51901;SDS011;37929;53.218;6.548;2022-09-09T10:07:12;8.73;;;5.00;;
51901;SDS011;37929;53.218;6.548;2022-09-09T10:09:42;10.23;;;4.43;;
51901;SDS011;37929;53.218;6.548;2022-09-09T10:12:17;11.13;;;6.78;;
51901;SDS011;37929;53.218;6.548;2022-09-09T10:15:12;10.70;;;5.03;;
51901;SDS011;37929;53.218;6.548;2022-09-09T10:23:46;9.10;;;3.60;;
51901;SDS011;37929;53.218;6.548;2022-09-09T10:26:45;9.77;;;3.80;;
51901;SDS011;37929;53.218;6.548;2022-09-09T10:40:15;13.00;;;3.88;;
51901;SDS011;37929;53.218;6.548;2022-09-09T10:42:44;16.02;;;4.22;;
51901;SDS011;37929;53.218;6.548;2022-09-09T10:53:34;7.03;;;2.80;;
51901;SDS011;37929;53.218;6.548;2022-09-09T10:56:14;7.97;;;2.67;;
51901;SDS011;37929;53.218;6.548;2022-09-09T10:58:44;9.60;;;2.58;;
51901;SDS011;37929;53.218;6.548;2022-09-09T11:01:22;5.88;;;2.47;;
51901;SDS011;37929;53.218;6.548;2022-09-09T11:03:59;9.82;;;3.00;;
51901;SDS011;37929;53.218;6.548;2022-09-09T11:06:39;7.70;;;2.65;;
51901;SDS011;37929;53.218;6.548;2022-09-09T11:09:17;4.95;;;2.22;;
51901;SDS011;37929;53.218;6.548;2022-09-09T11:11:54;8.50;;;2.55;;
51901;SDS011;37929;53.218;6.548;2022-09-09T11:19:45;5.80;;;1.98;;
51901;SDS011;37929;53.218;6.548;2022-09-09T11:25:08;5.53;;;2.10;;
51901;SDS011;37929;53.218;6.548;2022-09-09T11:39:16;18.17;;;6.38;;
51901;SDS011;37929;53.218;6.548;2022-09-09T11:41:44;9.30;;;2.42;;
51901;SDS011;37929;53.218;6.548;2022-09-09T11:44:17;6.38;;;2.83;;
51901;SDS011;37929;53.218;6.548;2022-09-09T11:46:51;6.57;;;2.00;;
51901;SDS011;37929;53.218;6.548;2022-09-09T11:49:50;6.70;;;2.25;;
51901;SDS011;37929;53.218;6.548;2022-09-09T11:53:03;6.80;;;2.35;;
51901;SDS011;37929;53.218;6.548;2022-09-09T11:55:26;7.20;;;2.45;;
51901;SDS011;37929;53.218;6.548;2022-09-09T11:57:58;7.25;;;2.00;;
51901;SDS011;37929;53.218;6.548;2022-09-09T12:00:40;6.18;;;2.40;;
51901;SDS011;37929;53.218;6.548;2022-09-09T12:08:43;7.25;;;2.42;;
51901;SDS011;37929;53.218;6.548;2022-09-09T12:11:11;5.57;;;2.15;;
51901;SDS011;37929;53.218;6.548;2022-09-09T12:13:52;6.00;;;2.05;;
51901;SDS011;37929;53.218;6.548;2022-09-09T12:16:30;4.70;;;2.10;;
51901;SDS011;37929;53.218;6.548;2022-09-09T12:21:34;5.75;;;2.15;;
51901;SDS011;37929;53.218;6.548;2022-09-09T12:24:11;7.03;;;2.88;;
51901;SDS011;37929;53.218;6.548;2022-09-09T12:29:53;6.43;;;2.00;;
51901;SDS011;37929;53.218;6.548;2022-09-09T12:32:27;8.48;;;2.30;;
51901;SDS011;37929;53.218;6.548;2022-09-09T12:35:04;7.53;;;2.00;;
51901;SDS011;37929;53.218;6.548;2022-09-09T12:38:03;8.38;;;2.40;;
51901;SDS011;37929;53.218;6.548;2022-09-09T12:40:33;6.30;;;2.05;;
51901;SDS011;37929;53.218;6.548;2022-09-09T12:43:02;6.68;;;1.70;;
51901;SDS011;37929;53.218;6.548;2022-09-09T12:45:46;9.40;;;2.25;;
51901;SDS011;37929;53.218;6.548;2022-09-09T12:48:15;7.13;;;2.10;;
51901;SDS011;37929;53.218;6.548;2022-09-09T12:50:46;6.03;;;2.20;;
51901;SDS011;37929;53.218;6.548;2022-09-09T12:53:26;4.15;;;2.03;;
51901;SDS011;37929;53.218;6.548;2022-09-09T12:56:00;5.38;;;1.95;;
51901;SDS011;37929;53.218;6.548;2022-09-09T12:58:44;4.10;;;1.90;;
51901;SDS011;37929;53.218;6.548;2022-09-09T13:03:56;6.82;;;2.22;;
51901;SDS011;37929;53.218;6.548;2022-09-09T13:06:26;6.00;;;1.90;;
51901;SDS011;37929;53.218;6.548;2022-09-09T13:08:59;6.75;;;1.95;;
51901;SDS011;37929;53.218;6.548;2022-09-09T13:11:28;8.23;;;2.17;;
51901;SDS011;37929;53.218;6.548;2022-09-09T13:14:14;7.20;;;2.30;;
51901;SDS011;37929;53.218;6.548;2022-09-09T13:16:53;6.75;;;2.40;;
51901;SDS011;37929;53.218;6.548;2022-09-09T13:19:23;9.13;;;3.85;;
51901;SDS011;37929;53.218;6.548;2022-09-09T13:21:53;5.70;;;2.10;;
51901;SDS011;37929;53.218;6.548;2022-09-09T13:24:33;5.82;;;3.22;;
51901;SDS011;37929;53.218;6.548;2022-09-09T13:27:00;5.38;;;1.95;;
51901;SDS011;37929;53.218;6.548;2022-09-09T13:29:29;6.10;;;1.98;;
51901;SDS011;37929;53.218;6.548;2022-09-09T13:32:06;6.68;;;2.08;;
51901;SDS011;37929;53.218;6.548;2022-09-09T13:34:49;6.78;;;2.33;;
51901;SDS011;37929;53.218;6.548;2022-09-09T13:37:36;6.03;;;2.10;;
51901;SDS011;37929;53.218;6.548;2022-09-09T13:40:04;5.38;;;2.03;;
51901;SDS011;37929;53.218;6.548;2022-09-09T13:42:32;6.18;;;3.00;;
51901;SDS011;37929;53.218;6.548;2022-09-09T13:45:02;6.47;;;2.35;;
51901;SDS011;37929;53.218;6.548;2022-09-09T13:47:32;5.90;;;2.10;;
51901;SDS011;37929;53.218;6.548;2022-09-09T13:52:48;5.45;;;2.38;;
51901;SDS011;37929;53.218;6.548;2022-09-09T13:55:19;6.05;;;1.95;;
51901;SDS011;37929;53.218;6.548;2022-09-09T13:57:54;5.68;;;2.33;;
51901;SDS011;37929;53.218;6.548;2022-09-09T14:00:31;7.35;;;2.42;;
51901;SDS011;37929;53.218;6.548;2022-09-09T14:02:59;4.85;;;1.90;;
51901;SDS011;37929;53.218;6.548;2022-09-09T14:05:27;4.00;;;1.73;;
51901;SDS011;37929;53.218;6.548;2022-09-09T14:07:56;4.40;;;1.42;;
51901;SDS011;37929;53.218;6.548;2022-09-09T14:10:23;3.58;;;1.42;;
51901;SDS011;37929;53.218;6.548;2022-09-09T14:12:48;4.53;;;1.70;;
51901;SDS011;37929;53.218;6.548;2022-09-09T14:15:14;4.22;;;1.80;;
51901;SDS011;37929;53.218;6.548;2022-09-09T14:17:41;4.35;;;1.50;;
51901;SDS011;37929;53.218;6.548;2022-09-09T14:20:07;9.10;;;1.65;;
51901;SDS011;37929;53.218;6.548;2022-09-09T14:22:36;6.13;;;1.55;;
51901;SDS011;37929;53.218;6.548;2022-09-09T14:25:04;4.38;;;1.50;;
51901;SDS011;37929;53.218;6.548;2022-09-09T14:27:31;5.57;;;1.80;;
51901;SDS011;37929;53.218;6.548;2022-09-09T14:29:57;3.47;;;1.42;;
51901;SDS011;37929;53.218;6.548;2022-09-09T14:32:25;4.82;;;1.88;;
51901;SDS011;37929;53.218;6.548;2022-09-09T14:34:51;5.03;;;1.45;;
51901;SDS011;37929;53.218;6.548;2022-09-09T14:37:17;3.80;;;1.50;;
51901;SDS011;37929;53.218;6.548;2022-09-09T14:39:43;3.58;;;1.55;;
51901;SDS011;37929;53.218;6.548;2022-09-09T14:42:12;4.70;;;1.73;;
51901;SDS011;37929;53.218;6.548;2022-09-09T14:44:39;4.75;;;1.45;;
51901;SDS011;37929;53.218;6.548;2022-09-09T14:47:05;4.18;;;1.27;;
51901;SDS011;37929;53.218;6.548;2022-09-09T14:49:33;2.78;;;1.30;;
51901;SDS011;37929;53.218;6.548;2022-09-09T14:52:02;5.85;;;1.63;;
51901;SDS011;37929;53.218;6.548;2022-09-09T14:54:29;2.38;;;1.10;;
51901;SDS011;37929;53.218;6.548;2022-09-09T14:56:55;2.42;;;1.10;;
51901;SDS011;37929;53.218;6.548;2022-09-09T14:59:21;2.63;;;1.17;;
51901;SDS011;37929;53.218;6.548;2022-09-09T15:01:47;2.65;;;1.10;;
51901;SDS011;37929;53.218;6.548;2022-09-09T15:04:13;2.13;;;1.15;;
51901;SDS011;37929;53.218;6.548;2022-09-09T15:06:43;1.85;;;0.95;;
51901;SDS011;37929;53.218;6.548;2022-09-09T15:09:13;2.50;;;1.10;;
51901;SDS011;37929;53.218;6.548;2022-09-09T15:11:39;2.85;;;1.10;;
51901;SDS011;37929;53.218;6.548;2022-09-09T15:14:05;7.72;;;2.08;;
51901;SDS011;37929;53.218;6.548;2022-09-09T15:16:33;5.95;;;2.00;;
51901;SDS011;37929;53.218;6.548;2022-09-09T15:18:59;4.13;;;1.30;;
51901;SDS011;37929;53.218;6.548;2022-09-09T15:21:27;3.75;;;1.52;;
51901;SDS011;37929;53.218;6.548;2022-09-09T15:23:55;4.72;;;1.50;;
51901;SDS011;37929;53.218;6.548;2022-09-09T15:26:22;3.30;;;1.63;;
51901;SDS011;37929;53.218;6.548;2022-09-09T15:28:48;3.08;;;1.63;;
51901;SDS011;37929;53.218;6.548;2022-09-09T15:36:25;4.72;;;1.83;;
51901;SDS011;37929;53.218;6.548;2022-09-09T15:38:59;4.00;;;1.58;;
51901;SDS011;37929;53.218;6.548;2022-09-09T15:41:25;4.95;;;2.60;;
51901;SDS011;37929;53.218;6.548;2022-09-09T15:43:52;3.40;;;1.98;;
51901;SDS011;37929;53.218;6.548;2022-09-09T15:48:52;6.28;;;1.77;;
51901;SDS011;37929;53.218;6.548;2022-09-09T15:51:34;3.70;;;1.38;;
51901;SDS011;37929;53.218;6.548;2022-09-09T15:54:00;4.45;;;1.60;;
51901;SDS011;37929;53.218;6.548;2022-09-09T15:56:27;4.63;;;1.70;;
51901;SDS011;37929;53.218;6.548;2022-09-09T15:58:55;2.85;;;1.30;;
51901;SDS011;37929;53.218;6.548;2022-09-09T16:01:22;3.40;;;1.98;;
51901;SDS011;37929;53.218;6.548;2022-09-09T16:03:49;3.78;;;1.90;;
51901;SDS011;37929;53.218;6.548;2022-09-09T16:06:19;4.53;;;1.42;;
51901;SDS011;37929;53.218;6.548;2022-09-09T16:08:47;4.80;;;2.00;;
51901;SDS011;37929;53.218;6.548;2022-09-09T16:11:21;4.22;;;1.50;;
51901;SDS011;37929;53.218;6.548;2022-09-09T16:13:49;3.95;;;1.60;;
51901;SDS011;37929;53.218;6.548;2022-09-09T16:16:17;4.05;;;1.63;;
51901;SDS011;37929;53.218;6.548;2022-09-09T16:18:48;2.70;;;1.40;;
51901;SDS011;37929;53.218;6.548;2022-09-09T16:21:21;2.45;;;1.27;;
51901;SDS011;37929;53.218;6.548;2022-09-09T16:23:54;3.45;;;1.30;;
51901;SDS011;37929;53.218;6.548;2022-09-09T16:26:21;2.80;;;1.30;;
51901;SDS011;37929;53.218;6.548;2022-09-09T16:28:47;5.25;;;1.52;;
51901;SDS011;37929;53.218;6.548;2022-09-09T16:31:15;3.40;;;1.50;;
51901;SDS011;37929;53.218;6.548;2022-09-09T16:33:42;3.25;;;1.33;;
51901;SDS011;37929;53.218;6.548;2022-09-09T16:36:10;3.17;;;1.63;;
51901;SDS011;37929;53.218;6.548;2022-09-09T16:38:37;5.63;;;1.80;;
51901;SDS011;37929;53.218;6.548;2022-09-09T16:41:04;3.85;;;1.60;;
51901;SDS011;37929;53.218;6.548;2022-09-09T16:43:34;4.05;;;2.00;;
51901;SDS011;37929;53.218;6.548;2022-09-09T16:46:01;3.35;;;2.03;;
51901;SDS011;37929;53.218;6.548;2022-09-09T16:48:38;3.78;;;1.50;;
51901;SDS011;37929;53.218;6.548;2022-09-09T16:51:08;4.68;;;1.88;;
51901;SDS011;37929;53.218;6.548;2022-09-09T16:53:39;6.32;;;2.05;;
51901;SDS011;37929;53.218;6.548;2022-09-09T16:56:08;2.80;;;1.77;;
51901;SDS011;37929;53.218;6.548;2022-09-09T16:58:35;3.88;;;2.00;;
51901;SDS011;37929;53.218;6.548;2022-09-09T17:01:02;4.60;;;1.70;;
51901;SDS011;37929;53.218;6.548;2022-09-09T17:03:28;5.03;;;1.90;;
51901;SDS011;37929;53.218;6.548;2022-09-09T17:05:55;3.10;;;1.67;;
51901;SDS011;37929;53.218;6.548;2022-09-09T17:08:23;3.13;;;1.52;;
51901;SDS011;37929;53.218;6.548;2022-09-09T17:10:49;4.35;;;1.50;;
51901;SDS011;37929;53.218;6.548;2022-09-09T17:13:15;4.40;;;2.13;;
51901;SDS011;37929;53.218;6.548;2022-09-09T17:15:44;4.22;;;2.30;;
51901;SDS011;37929;53.218;6.548;2022-09-09T17:18:10;5.90;;;2.28;;
51901;SDS011;37929;53.218;6.548;2022-09-09T17:20:37;4.60;;;2.40;;
51901;SDS011;37929;53.218;6.548;2022-09-09T17:23:04;6.22;;;2.80;;
51901;SDS011;37929;53.218;6.548;2022-09-09T17:25:31;3.25;;;2.10;;
51901;SDS011;37929;53.218;6.548;2022-09-09T17:27:57;3.72;;;2.22;;
51901;SDS011;37929;53.218;6.548;2022-09-09T17:30:24;5.53;;;2.13;;